Welcome to Northern Hawkes Bay. New Zealand.
PWS Header
      nz Flag



Hit Counter


W3C Valid W3C Valid logo


    Wairoa

Select any of the Stations below to visit their websites.










Historic Data from Weather Underground
Select the location of interest below. Wairoa is the default. Please have patience, this Data is slow to load in.
Northern Hawkes Bay Historical Data
Daily Summary for February 27, 2017 Units:  English    Metric   Both
« Previous Day
Next Day »
Daily Weekly Monthly Yearly Custom
  High: Low: Average:
Temperature: 73.4 °F 61.3 °F 66.2 °F
Dew Point: 64.6 °F 60.6 °F 62.1 °F
Humidity: 98% 72% 87%
Wind Speed: 9.8mph 0mph 3.5mph
Wind Gust: 15.2mph - -
Wind- - SW
Pressure: 30.5 in 30.3 in -
Precipitation: 0.09 in    
Historical Graphs
 
 
Tabular Data for February 27, 2017
Time Temperature Dew Point Pressure Wind Wind Speed Wind Gust Humidity Rainfall Rate (Hourly) solar
00:03 65.5 °F 62.4 °F 30.3 in SSW 6 mph 10.7 mph 90% 0 in 0 W/m2
00:08 65.3 °F 62.2 °F 30.3 in SSW 6 mph 9.8 mph 90% 0 in 0 W/m2
00:13 65.5 °F 62.4 °F 30.3 in SW 6.9 mph 9.8 mph 90% 0 in 0 W/m2
00:18 65.5 °F 62.4 °F 30.3 in SW 6.9 mph 9.8 mph 90% 0 in 0 W/m2
00:23 65.5 °F 62.4 °F 30.3 in SSW 6 mph 10.7 mph 90% 0 in 0 W/m2
00:28 65.5 °F 62.4 °F 30.3 in SW 5.4 mph 12.1 mph 90% 0 in 0 W/m2
00:33 65.3 °F 62.6 °F 30.3 in SW 6.9 mph 12.1 mph 91% 0 in 0 W/m2
00:43 65.3 °F 62.6 °F 30.3 in SW 6 mph 10.7 mph 91% 0 in 0 W/m2
00:48 65.1 °F 62.8 °F 30.3 in SW 6.9 mph 10.7 mph 92% 0 in 0 W/m2
00:53 65.1 °F 62.8 °F 30.3 in SW 3.1 mph 10.7 mph 92% 0 in 0 W/m2
01:11 64.6 °F 62.2 °F 30.3 in SW 4.5 mph 9.8 mph 92% 0 in 0 W/m2
01:16 64.6 °F 62.2 °F 30.3 in SW 9.2 mph 13 mph 92% 0 in 0 W/m2
01:21 64.8 °F 62.4 °F 30.3 in West 6.9 mph 13.6 mph 92% 0 in 0 W/m2
01:26 64.6 °F 62.2 °F 30.3 in West 8.3 mph 13.6 mph 92% 0 in 0 W/m2
01:31 64.2 °F 61.9 °F 30.3 in SW 6.9 mph 13.6 mph 92% 0 in 0 W/m2
01:36 63.9 °F 61.9 °F 30.3 in SW 4.5 mph 13.6 mph 93% 0 in 0 W/m2
01:41 63.7 °F 61.5 °F 30.3 in WSW 8.3 mph 12.1 mph 93% 0 in 0 W/m2
01:46 63.5 °F 61.5 °F 30.3 in WSW 5.4 mph 12.1 mph 93% 0 in 0 W/m2
01:51 63.3 °F 61.5 °F 30.3 in SW 3.8 mph 11.4 mph 94% 0 in 0 W/m2
01:56 63 °F 61.5 °F 30.3 in WSW 2.2 mph 9.2 mph 95% 0 in 0 W/m2
02:01 62.8 °F 61.3 °F 30.3 in Calm   9.2 mph 95% 0.01 in 0 W/m2
02:06 62.8 °F 61.5 °F 30.3 in SW 3.8 mph 6 mph 96% 0.01 in 0 W/m2
02:11 62.6 °F 61.5 °F 30.3 in SW 3.1 mph 6 mph 96% 0.04 in 0 W/m2
02:16 62.4 °F 61.5 °F 30.3 in Calm   5.4 mph 97% 0.04 in 0 W/m2
02:21 62.2 °F 61.7 °F 30.3 in Calm   3.1 mph 98% 0.04 in 0 W/m2
02:26 62.2 °F 61.7 °F 30.3 in Calm   3.8 mph 98% 0.04 in 0 W/m2
02:31 62.2 °F 61.7 °F 30.3 in Calm   3.8 mph 98% 0.04 in 0 W/m2
02:36 62.1 °F 61.5 °F 30.3 in WSW 3.1 mph 4.5 mph 98% 0.05 in 0 W/m2
02:41 62.1 °F 61.5 °F 30.3 in WSW 0.7 mph 4.5 mph 98% 0.05 in 0 W/m2
02:46 61.9 °F 61.3 °F 30.3 in West 0.7 mph 5.4 mph 98% 0.05 in 0 W/m2
02:51 61.9 °F 61.3 °F 30.3 in WSW 6 mph 7.6 mph 98% 0.05 in 0 W/m2
02:56 62.1 °F 61.5 °F 30.3 in WSW 2.2 mph 7.6 mph 98% 0.05 in 0 W/m2
03:01 62.2 °F 61.7 °F 30.3 in West 3.1 mph 7.6 mph 98% 0.04 in 0 W/m2
03:06 62.2 °F 61.7 °F 30.3 in WSW 3.1 mph 7.6 mph 98% 0.02 in 0 W/m2
03:11 62.2 °F 61.7 °F 30.3 in WSW 2.2 mph 8.3 mph 98% 0.01 in 0 W/m2
03:16 62.2 °F 61.7 °F 30.3 in WSW 2.2 mph 8.3 mph 98% 0.01 in 0 W/m2
03:21 62.1 °F 61.5 °F 30.3 in WSW 2.2 mph 5.4 mph 98% 0.01 in 0 W/m2
03:26 62.1 °F 61.5 °F 30.3 in WSW 3.1 mph 6 mph 98% 0.01 in 0 W/m2
03:31 62.1 °F 61.5 °F 30.3 in WSW 2.2 mph 6 mph 98% 0.01 in 0 W/m2
03:36 62.1 °F 61.5 °F 30.3 in WSW 3.1 mph 5.4 mph 98% 0 in 0 W/m2
03:41 61.9 °F 61.3 °F 30.3 in West 0.7 mph 4.5 mph 98% 0 in 0 W/m2
03:46 61.9 °F 61.3 °F 30.3 in Calm   3.8 mph 98% 0 in 0 W/m2
03:51 61.7 °F 61.2 °F 30.3 in Calm   3.1 mph 98% 0 in 0 W/m2
03:56 61.7 °F 61.2 °F 30.3 in Calm   3.1 mph 98% 0 in 0 W/m2
04:01 61.7 °F 61.2 °F 30.3 in WNW 0.7 mph 4.5 mph 98% 0 in 0 W/m2
04:06 61.7 °F 61.2 °F 30.3 in WNW 0.7 mph 4.5 mph 98% 0 in 0 W/m2
04:11 61.7 °F 61.2 °F 30.3 in Calm   2.2 mph 98% 0 in 0 W/m2
04:16 61.5 °F 61 °F 30.3 in NW 1.6 mph 3.1 mph 98% 0 in 0 W/m2
04:18 61.5 °F 61 °F 30.3 in WNW 2.2 mph 3.1 mph 98% 0 in 0 W/m2
04:23 61.5 °F 61 °F 30.3 in Calm   3.1 mph 98% 0 in 0 W/m2
04:28 61.5 °F 61 °F 30.3 in West 1.6 mph 3.1 mph 98% 0.01 in 0 W/m2
04:33 61.5 °F 61 °F 30.3 in Calm   3.8 mph 98% 0.01 in 0 W/m2
04:38 61.5 °F 61 °F 30.3 in West 0.7 mph 3.8 mph 98% 0.01 in 0 W/m2
04:43 61.5 °F 61 °F 30.3 in Calm   3.1 mph 98% 0.01 in 0 W/m2
04:48 61.5 °F 61 °F 30.3 in Calm   3.1 mph 98% 0.01 in 0 W/m2
04:53 61.5 °F 61 °F 30.3 in Calm   1.6 mph 98% 0.01 in 0 W/m2
04:58 61.5 °F 61 °F 30.3 in Calm   2.2 mph 98% 0.01 in 0 W/m2
05:03 61.5 °F 61 °F 30.4 in NNW 0.7 mph 3.1 mph 98% 0.01 in 0 W/m2
05:08 61.5 °F 61 °F 30.4 in Calm   3.1 mph 98% 0.01 in 0 W/m2
05:13 61.3 °F 60.8 °F 30.4 in Calm   2.2 mph 98% 0.02 in 0 W/m2
05:18 61.3 °F 60.8 °F 30.3 in Calm     98% 0.02 in 0 W/m2
05:23 61.3 °F 60.8 °F 30.4 in NNW 1.6 mph 2.2 mph 98% 0.02 in 0 W/m2
05:27 61.3 °F 60.8 °F 30.3 in Calm   2.2 mph 98% 0.02 in 0 W/m2
05:33 61.5 °F 61 °F 30.4 in NW 0.7 mph 3.8 mph 98% 0.02 in 0 W/m2
05:38 61.3 °F 60.8 °F 30.4 in Calm   3.8 mph 98% 0.02 in 0 W/m2
05:43 61.3 °F 60.8 °F 30.4 in Calm   3.8 mph 98% 0.02 in 0 W/m2
05:48 61.3 °F 60.8 °F 30.4 in NW 1.6 mph 3.8 mph 98% 0.02 in 0 W/m2
05:53 61.3 °F 60.8 °F 30.4 in NW 1.6 mph 3.8 mph 98% 0.02 in 0 W/m2
05:58 61.3 °F 60.8 °F 30.4 in NW 1.6 mph 3.8 mph 98% 0.02 in 0 W/m2
06:03 61.3 °F 60.8 °F 30.4 in NW 3.1 mph 4.5 mph 98% 0.02 in 0 W/m2
06:08 61.3 °F 60.8 °F 30.4 in Calm   4.5 mph 98% 0.02 in 0 W/m2
06:13 61.3 °F 60.8 °F 30.4 in WNW 0.7 mph 4.5 mph 98% 0.01 in 0 W/m2
06:18 61.3 °F 60.8 °F 30.4 in NNW 1.6 mph 3.1 mph 98% 0.02 in 0 W/m2
06:23 61.3 °F 60.8 °F 30.4 in NNW 0.7 mph 3.1 mph 98% 0.02 in 0 W/m2
06:27 61.3 °F 60.8 °F 30.4 in Calm   3.8 mph 98% 0.01 in 0 W/m2
06:33 61.3 °F 60.8 °F 30.4 in NNW 2.2 mph 3.8 mph 98% 0.01 in 0 W/m2
06:38 61.3 °F 60.8 °F 30.4 in Calm   3.1 mph 98% 0.01 in 0 W/m2
06:43 61.3 °F 60.8 °F 30.4 in Calm   3.1 mph 98% 0.01 in 0 W/m2
06:47 61.3 °F 60.8 °F 30.4 in Calm   2.2 mph 98% 0.01 in 0 W/m2
06:53 61.3 °F 60.8 °F 30.4 in NNW 0.7 mph 2.2 mph 98% 0.01 in 0 W/m2
06:58 61.3 °F 60.8 °F 30.4 in Calm   2.2 mph 98% 0.01 in 0 W/m2
07:03 61.3 °F 60.8 °F 30.4 in Calm   2.2 mph 98% 0.01 in 0 W/m2
07:07 61.5 °F 61 °F 30.4 in Calm     98% 0.01 in 4 W/m2
07:12 61.5 °F 61 °F 30.4 in Calm   1.6 mph 98% 0.01 in 7 W/m2
07:18 61.5 °F 61 °F 30.4 in Calm   1.6 mph 98% 0 in 10 W/m2
07:23 61.7 °F 61.2 °F 30.4 in West 3.1 mph 6 mph 98% 0 in 14 W/m2
07:27 61.7 °F 61.2 °F 30.4 in West 4.5 mph 9.2 mph 98% 0 in 21 W/m2
07:32 62.1 °F 61.5 °F 30.4 in WSW 6 mph 9.2 mph 98% 0 in 22 W/m2
07:38 62.2 °F 61.7 °F 30.4 in WSW 5.4 mph 9.2 mph 98% 0 in 21 W/m2
07:43 62.6 °F 61.9 °F 30.4 in SW 3.1 mph 11.4 mph 97% 0 in 27 W/m2
07:48 62.8 °F 61.9 °F 30.4 in SW 5.4 mph 11.4 mph 97% 0 in 42 W/m2
07:53 63 °F 62.1 °F 30.4 in SW 6 mph 10.7 mph 97% 0 in 56 W/m2
07:57 63 °F 61.5 °F 30.4 in WSW 3.8 mph 11.4 mph 95% 0 in 65 W/m2
08:03 63.1 °F 61.3 °F 30.4 in WSW 8.3 mph 13 mph 94% 0 in 63 W/m2
08:08 63.1 °F 61.3 °F 30.4 in WSW 6 mph 13 mph 94% 0 in 68 W/m2
08:13 63.1 °F 61.2 °F 30.4 in WSW 5.4 mph 11.4 mph 93% 0 in 72 W/m2
08:17 63.1 °F 61.2 °F 30.4 in WSW 3.8 mph 9.8 mph 93% 0 in 89 W/m2
08:22 63.7 °F 61.5 °F 30.4 in WSW 6 mph 9.8 mph 93% 0 in 137 W/m2
08:28 64.4 °F 62.8 °F 30.4 in SW 6.9 mph 10.7 mph 94% 0 in 145 W/m2
08:33 64.4 °F 62.1 °F 30.4 in SW 6.9 mph 13.6 mph 92% 0 in 124 W/m2
08:37 64.4 °F 61.7 °F 30.4 in WSW 5.4 mph 13.6 mph 91% 0 in 133 W/m2
08:42 64.4 °F 61.7 °F 30.4 in WSW 8.3 mph 12.1 mph 91% 0 in 137 W/m2
08:48 64.4 °F 61.3 °F 30.4 in WSW 5.4 mph 12.1 mph 90% 0 in 119 W/m2
08:52 64.2 °F 61.2 °F 30.4 in WSW 5.4 mph 11.4 mph 90% 0 in 117 W/m2
08:58 64 °F 61.3 °F 30.4 in West 3.8 mph 11.4 mph 91% 0 in 118 W/m2
09:03 64.2 °F 61.5 °F 30.4 in WSW 3.8 mph 10.7 mph 91% 0 in 130 W/m2
09:09 64.4 °F 61.7 °F 30.4 in WSW 1.6 mph 8.3 mph 91% 0 in 147 W/m2
09:14 64.8 °F 62.1 °F 30.4 in Calm   8.3 mph 91% 0 in 172 W/m2
09:18 65.3 °F 62.2 °F 30.4 in West 2.2 mph 6 mph 90% 0 in 203 W/m2
09:23 65.8 °F 62.8 °F 30.4 in West 2.2 mph 6 mph 90% 0 in 217 W/m2
09:29 66.4 °F 62.8 °F 30.4 in Calm   5.4 mph 88% 0 in 273 W/m2
09:34 67.3 °F 63.3 °F 30.4 in WSW 2.2 mph 5.4 mph 87% 0 in 218 W/m2
09:38 67.6 °F 63.3 °F 30.4 in West 3.8 mph 5.4 mph 86% 0 in 151 W/m2
09:43 66.9 °F 62.1 °F 30.4 in West 2.2 mph 7.6 mph 84% 0 in 150 W/m2
09:48 66.6 °F 61.5 °F 30.4 in West 3.1 mph 7.6 mph 84% 0 in 166 W/m2
09:53 66.6 °F 61.9 °F 30.4 in West 0.7 mph 4.5 mph 85% 0 in 150 W/m2
09:58 66.9 °F 62.2 °F 30.4 in WSW 3.8 mph 6 mph 85% 0 in 188 W/m2
10:03 66.7 °F 61.9 °F 30.4 in WSW 6 mph 9.2 mph 84% 0 in 229 W/m2
10:08 66.6 °F 61.5 °F 30.4 in WSW 6 mph 9.2 mph 84% 0 in 269 W/m2
10:13 67.3 °F 62.2 °F 30.4 in SW 3.1 mph 9.2 mph 84% 0 in 316 W/m2
10:19 67.6 °F 62.2 °F 30.4 in SW 3.1 mph 9.2 mph 83% 0 in 250 W/m2
10:24 67.8 °F 61.9 °F 30.4 in SW 4.5 mph 9.2 mph 81% 0 in 225 W/m2
10:28 67.6 °F 61.5 °F 30.4 in SW 5.4 mph 8.3 mph 81% 0 in 236 W/m2
10:33 67.6 °F 62.1 °F 30.4 in WSW 8.3 mph 9.2 mph 82% 0 in 279 W/m2
10:38 67.5 °F 61.5 °F 30.4 in WSW 3.1 mph 9.8 mph 81% 0 in 306 W/m2
10:43 68 °F 61.5 °F 30.4 in SW 5.4 mph 9.8 mph 80% 0 in 384 W/m2
10:48 68.4 °F 61.5 °F 30.4 in SW 4.5 mph 9.8 mph 79% 0 in 451 W/m2
10:53 68.5 °F 61.2 °F 30.4 in SW 5.4 mph 11.4 mph 77% 0 in 490 W/m2
10:58 68.9 °F 61.3 °F 30.4 in SW 9.2 mph 11.4 mph 77% 0 in 567 W/m2
11:03 69.6 °F 62.1 °F 30.4 in SW 6 mph 10.7 mph 77% 0 in 459 W/m2
11:08 70 °F 61.7 °F 30.4 in SW 5.4 mph 9.8 mph 75% 0 in 605 W/m2
11:13 70 °F 61.7 °F 30.4 in SW 5.4 mph 9.8 mph 75% 0 in 523 W/m2
11:18 69.8 °F 61.2 °F 30.4 in WSW 6 mph 9.2 mph 74% 0 in 346 W/m2
11:23 69.8 °F 61.5 °F 30.4 in SW 6 mph 9.2 mph 75% 0 in 471 W/m2
11:28 69.6 °F 61.3 °F 30.4 in SW 6.9 mph 10.7 mph 75% 0 in 545 W/m2
11:34 69.6 °F 62.1 °F 30.4 in SW 5.4 mph 10.7 mph 77% 0 in 655 W/m2
11:38 70.3 °F 62.4 °F 30.4 in SSW 3.8 mph 10.7 mph 76% 0 in 616 W/m2
11:43 70.7 °F 61.5 °F 30.4 in SSW 7.6 mph 10.7 mph 73% 0 in 790 W/m2
11:48 70.5 °F 61.9 °F 30.4 in SW 6 mph 10.7 mph 74% 0 in 790 W/m2
11:53 70.5 °F 61.5 °F 30.4 in SW 8.3 mph 13 mph 73% 0 in 750 W/m2
11:58 69.8 °F 61.2 °F 30.4 in SSW 9.8 mph 14.5 mph 74% 0 in 772 W/m2
12:03 70 °F 61.3 °F 30.4 in SSW 6.9 mph 15.2 mph 74% 0 in 823 W/m2
12:08 69.8 °F 61.2 °F 30.4 in SSW 9.2 mph 15.2 mph 74% 0 in 834 W/m2
12:13 69.8 °F 61.2 °F 30.4 in SSW 8.3 mph 14.5 mph 74% 0 in 792 W/m2
12:18 69.8 °F 61.2 °F 30.4 in SSW 7.6 mph 13 mph 74% 0 in 797 W/m2
12:23 70 °F 61.7 °F 30.4 in SSW 6 mph 14.5 mph 75% 0 in 786 W/m2
12:28 70.5 °F 61.5 °F 30.4 in SW 9.2 mph 14.5 mph 73% 0 in 783 W/m2
12:33 70 °F 61.3 °F 30.4 in SW 6.9 mph 13.6 mph 74% 0 in 856 W/m2
12:38 70 °F 61.3 °F 30.4 in SSW 7.6 mph 13.6 mph 74% 0 in 800 W/m2
12:43 70.3 °F 61.7 °F 30.4 in SSW 8.3 mph 13.6 mph 74% 0 in 875 W/m2
12:48 70.3 °F 62.1 °F 30.4 in SW 9.2 mph 12.1 mph 75% 0 in 832 W/m2
12:53 70.2 °F 61.5 °F 30.4 in SSW 9.2 mph 15.2 mph 74% 0 in 865 W/m2
12:58 70.2 °F 61.9 °F 30.4 in SSW 8.3 mph 15.2 mph 75% 0 in 618 W/m2
13:03 70.2 °F 62.2 °F 30.4 in SW 8.3 mph 13.6 mph 76% 0 in 792 W/m2
13:08 70.2 °F 61.9 °F 30.4 in SW 8.3 mph 13.6 mph 75% 0 in 757 W/m2
13:13 70.2 °F 61.5 °F 30.4 in SW 9.2 mph 12.1 mph 74% 0 in 556 W/m2
13:18 69.8 °F 61.5 °F 30.4 in SSW 6.9 mph 12.1 mph 75% 0 in 446 W/m2
13:23 69.4 °F 62.2 °F 30.4 in SSW 6.9 mph 12.1 mph 78% 0 in 588 W/m2
13:28 69.6 °F 62.4 °F 30.4 in SW 6.9 mph 12.1 mph 78% 0 in 629 W/m2
13:33 69.8 °F 62.2 °F 30.4 in SW 7.6 mph 11.4 mph 77% 0 in 765 W/m2
13:38 70 °F 62.4 °F 30.4 in SW 8.3 mph 12.1 mph 77% 0 in 467 W/m2
13:43 69.4 °F 62.2 °F 30.4 in SSW 9.2 mph 12.1 mph 78% 0 in 520 W/m2
13:48 69.8 °F 62.8 °F 30.4 in SSW 6.9 mph 13.6 mph 78% 0 in 674 W/m2
13:53 69.8 °F 62.8 °F 30.4 in SSW 6 mph 14.5 mph 78% 0 in 642 W/m2
13:58 70.2 °F 62.2 °F 30.4 in SSW 7.6 mph 14.5 mph 76% 0 in 730 W/m2
14:03 70.2 °F 62.2 °F 30.4 in SSW 6.9 mph 12.1 mph 76% 0 in 763 W/m2
14:08 70.7 °F 62.8 °F 30.4 in SSW 4.5 mph 13.6 mph 76% 0 in 692 W/m2
14:13 70.5 °F 62.6 °F 30.4 in SSW 6 mph 13.6 mph 76% 0 in 414 W/m2
14:18 70.3 °F 62.1 °F 30.4 in SSW 6.9 mph 11.4 mph 75% 0 in 449 W/m2
14:23 70.3 °F 62.8 °F 30.4 in SSW 8.3 mph 10.7 mph 77% 0 in 600 W/m2
14:28 70.3 °F 62.4 °F 30.4 in SSW 6.9 mph 11.4 mph 76% 0 in 402 W/m2
14:33 69.8 °F 61.5 °F 30.4 in SSW 9.2 mph 12.1 mph 75% 0 in 496 W/m2
14:38 69.8 °F 61.9 °F 30.4 in South 5.4 mph 12.1 mph 76% 0 in 445 W/m2
14:43 70.3 °F 61.7 °F 30.4 in SSW 7.6 mph 11.4 mph 74% 0 in 454 W/m2
14:48 70.7 °F 62.1 °F 30.4 in SSW 6 mph 11.4 mph 74% 0 in 548 W/m2
14:53 70.9 °F 61.9 °F 30.4 in South 4.5 mph 9.8 mph 73% 0 in 600 W/m2
14:58 71.8 °F 62.8 °F 30.4 in South 4.5 mph 9.8 mph 73% 0 in 508 W/m2
15:03 71.4 °F 62.2 °F 30.4 in South 5.4 mph 9.8 mph 73% 0 in 677 W/m2
15:08 71.6 °F 62.1 °F 30.4 in South 6 mph 9.8 mph 72% 0 in 458 W/m2
15:13 71.8 °F 63.1 °F 30.4 in South 3.8 mph 9.2 mph 74% 0 in 657 W/m2
15:18 72.1 °F 63.3 °F 30.4 in SSW 6.9 mph 9.8 mph 74% 0 in 572 W/m2
15:23 72.3 °F 63.7 °F 30.4 in SSW 2.2 mph 9.8 mph 74% 0 in 608 W/m2
15:28 72.1 °F 63 °F 30.4 in SSW 6.9 mph 9.2 mph 73% 0 in 543 W/m2
15:33 72.3 °F 64 °F 30.4 in SSW 5.4 mph 9.2 mph 75% 0 in 505 W/m2
15:38 72.1 °F 63.9 °F 30.4 in South 6 mph 8.3 mph 75% 0 in 395 W/m2
15:43 72.3 °F 63.7 °F 30.4 in SSW 4.5 mph 8.3 mph 74% 0 in 520 W/m2
15:48 73 °F 63.9 °F 30.4 in South 5.4 mph 8.3 mph 73% 0 in 510 W/m2
15:53 72.9 °F 63.3 °F 30.4 in South 5.4 mph 8.3 mph 72% 0 in 321 W/m2
15:58 72.1 °F 63 °F 30.4 in South 4.5 mph 8.3 mph 73% 0 in 292 W/m2
16:03 72 °F 63.7 °F 30.4 in South 3.8 mph 8.3 mph 75% 0 in 407 W/m2
16:08 72 °F 63.3 °F 30.4 in South 4.5 mph 8.3 mph 74% 0 in 436 W/m2
16:13 71.4 °F 63.5 °F 30.4 in South 6 mph 10.7 mph 76% 0 in 463 W/m2
16:18 71.6 °F 63.3 °F 30.4 in South 6 mph 11.4 mph 75% 0 in 357 W/m2
16:23 72.3 °F 63.1 °F 30.4 in South 6 mph 11.4 mph 73% 0 in 435 W/m2
16:28 72.7 °F 63.7 °F 30.4 in South 6.9 mph 9.8 mph 73% 0 in 285 W/m2
16:33 73 °F 63.9 °F 30.4 in South 3.8 mph 9.8 mph 73% 0 in 516 W/m2
16:38 73.4 °F 63.9 °F 30.4 in South 4.5 mph 9.8 mph 72% 0 in 371 W/m2
16:43 73 °F 63.5 °F 30.4 in South 6 mph 9.8 mph 72% 0 in 462 W/m2
16:48 73 °F 64.2 °F 30.4 in South 6.9 mph 9.8 mph 74% 0 in 385 W/m2
16:53 72.5 °F 63.9 °F 30.4 in South 6 mph 10.7 mph 74% 0 in 439 W/m2
16:58 72.7 °F 63.1 °F 30.4 in South 6 mph 10.7 mph 72% 0 in 429 W/m2
17:03 72.7 °F 63.7 °F 30.4 in South 5.4 mph 9.8 mph 73% 0 in 415 W/m2
17:08 73.2 °F 64 °F 30.4 in SSE 5.4 mph 9.8 mph 73% 0 in 407 W/m2
17:13 72 °F 63 °F 30.4 in South 6.9 mph 9.8 mph 73% 0 in 219 W/m2
17:18 70.3 °F 63.1 °F 30.4 in SSW 3.1 mph 9.8 mph 78% 0 in 121 W/m2
17:23 69.6 °F 63.9 °F 30.4 in SSW 5.4 mph 9.8 mph 82% 0 in 178 W/m2
17:28 70.3 °F 64.2 °F 30.4 in South 4.5 mph 9.8 mph 81% 0 in 283 W/m2
17:33 71.4 °F 64.2 °F 30.4 in South 6 mph 9.8 mph 78% 0 in 316 W/m2
17:38 72.1 °F 64.6 °F 30.4 in South 6.9 mph 9.8 mph 77% 0 in 306 W/m2
17:43 72.7 °F 64.2 °F 30.4 in SSW 4.5 mph 11.4 mph 75% 0 in 342 W/m2
17:48 72.7 °F 64.2 °F 30.4 in SSW 3.8 mph 11.4 mph 75% 0 in 320 W/m2
17:53 72.9 °F 64 °F 30.4 in SSW 4.5 mph 7.6 mph 74% 0 in 182 W/m2
17:58 71.8 °F 63.5 °F 30.4 in SSW 3.1 mph 7.6 mph 75% 0 in 157 W/m2
18:03 71.1 °F 63.9 °F 30.4 in South 5.4 mph 6.9 mph 78% 0 in 151 W/m2
18:08 70.2 °F 63.3 °F 30.4 in South 3.1 mph 6.9 mph 79% 0 in 157 W/m2
18:13 70.2 °F 63.7 °F 30.4 in South 3.8 mph 6.9 mph 80% 0 in 130 W/m2
18:18 70 °F 63.7 °F 30.4 in SSE 2.2 mph 5.4 mph 80% 0 in 121 W/m2
18:23 70 °F 63.7 °F 30.4 in SE 0.7 mph 5.4 mph 80% 0 in 114 W/m2
18:28 70.2 °F 63.3 °F 30.4 in ESE 0.7 mph 5.4 mph 79% 0 in 102 W/m2
18:33 69.8 °F 62.8 °F 30.4 in SE 1.6 mph 6 mph 78% 0 in 93 W/m2
18:38 70.3 °F 63.5 °F 30.4 in SE 1.6 mph 6.9 mph 79% 0 in 95 W/m2
18:43 70.3 °F 62.8 °F 30.4 in SE 3.8 mph 6.9 mph 77% 0 in 82 W/m2
18:48 69.6 °F 63.1 °F 30.4 in SE 3.8 mph 5.4 mph 80% 0 in 67 W/m2
18:53 69.3 °F 63.7 °F 30.4 in SSE 2.2 mph 5.4 mph 82% 0 in 61 W/m2
18:58 69.1 °F 63.7 °F 30.4 in SSE 0.7 mph 5.4 mph 83% 0 in 52 W/m2
19:03 68.7 °F 63 °F 30.4 in SE 1.6 mph 5.4 mph 82% 0 in 41 W/m2
19:08 68.4 °F 63 °F 30.4 in SSE 3.1 mph 5.4 mph 83% 0 in 35 W/m2
19:13 68 °F 62.8 °F 30.4 in SSE 3.1 mph 5.4 mph 83% 0 in 31 W/m2
19:18 67.6 °F 63 °F 30.4 in SSE 2.2 mph 4.5 mph 85% 0 in 29 W/m2
19:23 67.3 °F 62.6 °F 30.4 in South 2.2 mph 4.5 mph 85% 0 in 25 W/m2
19:28 67.3 °F 62.6 °F 30.4 in South 2.2 mph 4.5 mph 85% 0 in 20 W/m2
19:33 66.9 °F 62.6 °F 30.4 in South 0.7 mph 3.8 mph 86% 0 in 14 W/m2
19:38 66.9 °F 62.6 °F 30.4 in South 2.2 mph 3.8 mph 86% 0 in 11 W/m2
19:43 66.7 °F 62.4 °F 30.4 in South 0.7 mph 3.8 mph 86% 0 in 8 W/m2
19:48 66.6 °F 62.2 °F 30.4 in South 2.2 mph 5.4 mph 86% 0 in 5 W/m2
19:53 66.4 °F 62.4 °F 30.4 in South 2.2 mph 5.4 mph 87% 0 in 2 W/m2
19:58 66.2 °F 62.2 °F 30.4 in Calm   4.5 mph 87% 0 in 1 W/m2
20:03 66 °F 62.4 °F 30.4 in South 2.2 mph 3.8 mph 88% 0 in 0 W/m2
20:08 66 °F 62.8 °F 30.5 in South 3.1 mph 4.5 mph 89% 0 in 0 W/m2
20:13 66 °F 62.8 °F 30.5 in South 1.6 mph 4.5 mph 89% 0 in 0 W/m2
20:18 65.8 °F 62.4 °F 30.5 in SSE 1.6 mph 3.8 mph 89% 0 in 0 W/m2
20:23 65.7 °F 62.8 °F 30.5 in Calm   3.8 mph 90% 0 in 0 W/m2
20:28 65.5 °F 62.4 °F 30.5 in Calm   3.1 mph 90% 0 in 0 W/m2
20:33 65.3 °F 62.2 °F 30.5 in Calm     90% 0 in 0 W/m2
20:38 64.9 °F 62.1 °F 30.5 in Calm     90% 0 in 0 W/m2
20:43 64.9 °F 62.2 °F 30.5 in Calm     91% 0 in 0 W/m2
20:48 64.8 °F 62.1 °F 30.5 in Calm     91% 0 in 0 W/m2
20:53 64.8 °F 62.4 °F 30.5 in Calm     92% 0 in 0 W/m2
20:58 64.8 °F 62.4 °F 30.5 in Calm     92% 0 in 0 W/m2
21:03 64.8 °F 62.4 °F 30.5 in Calm     92% 0 in 0 W/m2
21:08 64.6 °F 62.4 °F 30.5 in Calm     93% 0 in 0 W/m2
21:13 64.6 °F 62.4 °F 30.5 in Calm     93% 0 in 0 W/m2
21:18 64.6 °F 62.4 °F 30.5 in Calm     93% 0 in 0 W/m2
21:23 64.4 °F 62.4 °F 30.5 in Calm     93% 0 in 0 W/m2
21:28 64.2 °F 61.9 °F 30.5 in Calm     92% 0 in 0 W/m2
21:33 64 °F 61.7 °F 30.5 in Calm     92% 0 in 0 W/m2
21:38 63.9 °F 61.5 °F 30.5 in Calm     92% 0 in 0 W/m2
21:43 63.7 °F 61.3 °F 30.5 in Calm     92% 0 in 0 W/m2
21:48 63.5 °F 61.2 °F 30.5 in Calm     92% 0 in 0 W/m2
21:53 63.3 °F 61 °F 30.5 in Calm     92% 0 in 0 W/m2
21:58 63.1 °F 61.2 °F 30.5 in Calm     93% 0 in 0 W/m2
22:03 63 °F 61 °F 30.5 in Calm     93% 0 in 0 W/m2
22:08 63 °F 61 °F 30.5 in Calm     93% 0 in 0 W/m2
22:13 62.8 °F 60.6 °F 30.5 in Calm     93% 0 in 0 W/m2
22:18 62.6 °F 60.6 °F 30.5 in Calm     93% 0 in 0 W/m2
22:23 62.6 °F 61 °F 30.5 in Calm     94% 0 in 0 W/m2
22:41 62.6 °F 61.2 °F 30.5 in Calm     95% 0 in 0 W/m2
22:46 62.6 °F 61.2 °F 30.5 in Calm     95% 0 in 0 W/m2
22:51 62.6 °F 61.5 °F 30.5 in North 1.6 mph 2.2 mph 96% 0 in 0 W/m2
22:56 62.6 °F 61.5 °F 30.5 in Calm   2.2 mph 96% 0 in 0 W/m2
23:01 62.6 °F 61.5 °F 30.5 in Calm   2.2 mph 96% 0 in 0 W/m2
23:06 62.6 °F 61.5 °F 30.5 in Calm     96% 0 in 0 W/m2
23:11 62.6 °F 61.5 °F 30.5 in Calm   1.6 mph 96% 0 in 0 W/m2
23:31 62.8 °F 61.5 °F 30.5 in Calm   0.7 mph 96% 0 in 0 W/m2
23:36 62.8 °F 61.5 °F 30.5 in Calm   1.6 mph 96% 0 in 0 W/m2
23:41 62.8 °F 61.9 °F 30.5 in NNW 2.2 mph 3.8 mph 97% 0 in 0 W/m2
23:46 63 °F 62.1 °F 30.5 in NNW 3.8 mph 5.4 mph 97% 0 in 0 W/m2
23:51 62.8 °F 61.9 °F 30.5 in NW 2.2 mph 5.4 mph 97% 0 in 0 W/m2
23:56 62.6 °F 61.9 °F 30.5 in NW 0.7 mph 4.5 mph 97% 0 in 0 W/m2
Northern Hawkes Bay. New Zealand Historic Data
Compliments of Weather Underground - 2.25 mb